createdAt,value
2022-07-29T00:00:03.078Z,939.53
2022-07-29T00:05:03.261Z,939.66
2022-07-29T00:10:03.051Z,939.68
2022-07-29T00:15:02.853Z,939.74
2022-07-29T00:20:03.104Z,939.90
2022-07-29T00:25:03.235Z,939.96
2022-07-29T00:30:03.111Z,940.02
2022-07-29T00:35:02.910Z,940.09
2022-07-29T00:40:08.195Z,940.08
2022-07-29T00:45:02.843Z,940.09
2022-07-29T00:50:03.097Z,940.06
2022-07-29T00:55:08.712Z,939.98
2022-07-29T01:00:03.095Z,940.00
2022-07-29T01:05:02.931Z,940.02
2022-07-29T01:10:02.956Z,940.08
2022-07-29T01:15:02.992Z,940.15
2022-07-29T01:20:03.136Z,940.15
2022-07-29T01:25:03.024Z,940.21
2022-07-29T01:30:06.393Z,940.21
2022-07-29T01:35:02.959Z,940.19
2022-07-29T01:40:08.073Z,940.21
2022-07-29T01:45:02.949Z,940.25
2022-07-29T01:50:03.088Z,940.27
2022-07-29T01:55:02.992Z,940.35
2022-07-29T02:00:03.249Z,940.43
2022-07-29T02:05:03.152Z,940.39
2022-07-29T02:10:03.099Z,940.51
2022-07-29T02:15:03.265Z,940.47
2022-07-29T02:20:03.305Z,940.37
2022-07-29T02:25:03.198Z,940.31
2022-07-29T02:30:02.990Z,940.37
2022-07-29T02:35:03.010Z,940.45
2022-07-29T02:40:03.055Z,940.49
2022-07-29T02:45:02.984Z,940.64
2022-07-29T02:50:03.374Z,940.61
2022-07-29T02:55:07.970Z,940.61
2022-07-29T03:00:03.064Z,940.74
2022-07-29T03:05:02.956Z,940.84
2022-07-29T03:10:03.071Z,940.88
2022-07-29T03:15:02.917Z,941.09
2022-07-29T03:20:03.070Z,941.31
2022-07-29T03:25:02.978Z,941.55
2022-07-29T03:30:03.008Z,941.70
2022-07-29T03:35:02.940Z,941.49
2022-07-29T03:40:03.203Z,941.61
2022-07-29T03:45:02.937Z,941.57
2022-07-29T03:50:02.987Z,941.64
2022-07-29T03:55:02.878Z,941.76
2022-07-29T04:00:03.028Z,941.80
2022-07-29T04:05:02.913Z,941.66
2022-07-29T04:10:04.219Z,941.88
2022-07-29T04:15:02.895Z,942.04
2022-07-29T04:20:03.053Z,942.04
2022-07-29T04:25:04.116Z,942.08
2022-07-29T04:30:03.071Z,942.25
2022-07-29T04:35:03.018Z,942.27
2022-07-29T04:40:03.063Z,942.19
2022-07-29T04:45:02.830Z,942.00
2022-07-29T04:50:03.024Z,941.80
2022-07-29T04:55:02.964Z,941.80
2022-07-29T05:00:02.988Z,941.72
2022-07-29T05:05:02.898Z,941.61
2022-07-29T05:10:02.981Z,941.51
2022-07-29T05:15:03.017Z,941.49
2022-07-29T05:20:03.116Z,941.21
2022-07-29T05:25:07.049Z,941.02
2022-07-29T05:30:03.061Z,941.08
2022-07-29T05:35:02.959Z,941.04
2022-07-29T05:40:03.031Z,940.92
2022-07-29T05:45:02.891Z,941.04
2022-07-29T05:50:03.125Z,941.19
2022-07-29T05:55:02.956Z,941.15
2022-07-29T06:00:03.003Z,940.92
2022-07-29T06:05:07.927Z,941.02
2022-07-29T06:10:03.117Z,941.23
2022-07-29T06:15:02.923Z,941.47
2022-07-29T06:20:03.079Z,941.66
2022-07-29T06:25:02.858Z,941.59
2022-07-29T06:30:02.969Z,941.88
2022-07-29T06:35:24.736Z,941.33
2022-07-29T06:40:02.968Z,941.61
2022-07-29T06:45:06.166Z,941.15
2022-07-29T06:50:03.206Z,941.47
2022-07-29T06:55:02.827Z,942.10
2022-07-29T07:00:03.016Z,941.76
2022-07-29T07:05:02.965Z,941.59
2022-07-29T07:10:03.044Z,941.63
2022-07-29T07:15:02.949Z,941.47
2022-07-29T07:20:02.969Z,941.08
2022-07-29T07:25:02.939Z,941.19
2022-07-29T07:30:03.000Z,941.88
2022-07-29T07:35:02.827Z,941.49
2022-07-29T07:40:03.003Z,940.88
2022-07-29T07:45:13.343Z,941.06
2022-07-29T07:50:03.108Z,941.37
2022-07-29T07:55:02.817Z,941.72
2022-07-29T08:00:02.981Z,941.84
2022-07-29T08:05:02.930Z,941.76
2022-07-29T08:10:03.023Z,941.51
2022-07-29T08:20:03.229Z,941.09
2022-07-29T08:25:02.996Z,941.17
2022-07-29T08:30:03.112Z,941.37
2022-07-29T08:35:02.856Z,941.53
2022-07-29T08:40:03.108Z,941.70
2022-07-29T08:45:02.998Z,941.84
2022-07-29T08:50:03.081Z,941.96
2022-07-29T08:55:02.873Z,941.96
2022-07-29T09:00:06.516Z,941.92
2022-07-29T09:05:02.873Z,941.72
2022-07-29T09:10:02.971Z,941.86
2022-07-29T09:15:02.947Z,941.92
2022-07-29T09:20:03.226Z,942.00
2022-07-29T09:25:03.007Z,942.17
2022-07-29T09:30:03.085Z,942.37
2022-07-29T09:35:02.883Z,942.45
2022-07-29T09:40:03.157Z,942.63
2022-07-29T09:45:02.938Z,942.70
2022-07-29T09:50:03.135Z,942.70
2022-07-29T09:55:02.956Z,942.84
2022-07-29T10:00:03.093Z,942.82
2022-07-29T10:05:02.842Z,942.98
2022-07-29T10:10:02.992Z,942.94
2022-07-29T10:15:02.964Z,943.02
2022-07-29T10:20:03.038Z,943.08
2022-07-29T10:25:02.853Z,943.14
2022-07-29T10:30:03.009Z,943.14
2022-07-29T10:35:02.867Z,943.27
2022-07-29T10:40:02.960Z,943.25
2022-07-29T10:45:02.999Z,943.35
2022-07-29T10:50:03.086Z,943.51
2022-07-29T10:55:03.055Z,943.66
2022-07-29T11:00:03.049Z,943.78
2022-07-29T12:10:03.033Z,944.57
2022-07-29T12:15:02.908Z,944.53
2022-07-29T12:20:02.995Z,944.59
2022-07-29T12:25:30.209Z,944.72
2022-07-29T12:30:03.013Z,944.80
2022-07-29T12:35:02.817Z,944.80
2022-07-29T12:40:03.203Z,944.82
2022-07-29T12:45:02.883Z,944.80
2022-07-29T12:50:03.058Z,944.86
2022-07-29T12:55:02.953Z,944.90
2022-07-29T13:00:02.991Z,944.92
2022-07-29T13:05:02.909Z,944.88
2022-07-29T13:10:03.044Z,944.88
2022-07-29T13:15:02.935Z,945.06
2022-07-29T13:20:02.969Z,945.23
2022-07-29T13:25:02.867Z,945.27
2022-07-29T13:30:03.015Z,945.27
2022-07-29T13:35:05.221Z,945.27
2022-07-29T13:40:03.230Z,945.22
2022-07-29T13:45:02.931Z,945.23
2022-07-29T13:50:03.048Z,945.33
2022-07-29T13:55:02.885Z,945.31
2022-07-29T14:00:03.036Z,945.27
2022-07-29T14:05:07.845Z,945.23
2022-07-29T14:10:03.019Z,945.29
2022-07-29T14:15:02.988Z,945.33
2022-07-29T14:20:03.039Z,945.29
2022-07-29T14:25:08.702Z,945.33
2022-07-29T14:30:03.089Z,945.33
2022-07-29T14:35:02.924Z,945.22
2022-07-29T14:40:03.034Z,945.27
2022-07-29T14:45:03.007Z,945.23
2022-07-29T14:50:03.004Z,945.27
2022-07-29T14:55:02.943Z,945.25
2022-07-29T15:00:03.089Z,945.22
2022-07-29T15:05:02.899Z,945.18
2022-07-29T15:10:03.068Z,945.18
2022-07-29T15:15:03.509Z,945.18
2022-07-29T15:20:03.032Z,945.16
2022-07-29T15:25:02.904Z,945.08
2022-07-29T15:30:03.038Z,945.00
2022-07-29T15:35:02.951Z,944.88
2022-07-29T15:40:02.973Z,944.90
2022-07-29T15:45:02.951Z,944.78
2022-07-29T15:50:03.228Z,944.68
2022-07-29T15:55:02.925Z,944.70
2022-07-29T16:00:03.043Z,944.67
2022-07-29T16:05:02.833Z,944.65
2022-07-29T16:10:03.105Z,944.59
2022-07-29T16:15:06.348Z,944.45
2022-07-29T16:20:03.035Z,944.45
2022-07-29T16:25:02.854Z,944.37
2022-07-29T16:30:03.013Z,944.35
2022-07-29T16:35:02.896Z,944.27
2022-07-29T16:40:04.092Z,944.17
2022-07-29T16:45:02.953Z,944.15
2022-07-29T16:50:03.048Z,944.08
2022-07-29T16:55:02.967Z,943.96
2022-07-29T17:00:03.249Z,943.88
2022-07-29T17:05:02.988Z,943.78
2022-07-29T17:10:04.072Z,943.76
2022-07-29T17:15:02.920Z,943.72
2022-07-29T17:20:03.072Z,943.70
2022-07-29T17:25:02.916Z,943.74
2022-07-29T17:30:02.975Z,943.80
2022-07-29T17:35:02.920Z,943.72
2022-07-29T17:40:03.025Z,943.66
2022-07-29T17:45:02.938Z,943.68
2022-07-29T17:50:03.137Z,943.72
2022-07-29T17:55:07.923Z,943.74
2022-07-29T18:00:03.013Z,943.74
2022-07-29T18:05:02.900Z,943.74
2022-07-29T18:10:03.095Z,943.76
2022-07-29T18:15:02.910Z,943.82
2022-07-29T18:20:03.130Z,943.76
2022-07-29T18:25:02.909Z,943.72
2022-07-29T18:30:03.402Z,943.76
2022-07-29T18:35:02.861Z,943.74
2022-07-29T18:40:02.995Z,943.65
2022-07-29T18:45:02.938Z,943.70
2022-07-29T18:50:03.011Z,943.68
2022-07-29T18:55:02.915Z,943.66
2022-07-29T19:00:02.994Z,943.63
2022-07-29T19:05:02.916Z,943.51
2022-07-29T19:10:03.083Z,943.59
2022-07-29T19:15:02.936Z,943.63
2022-07-29T19:20:03.248Z,943.59
2022-07-29T19:25:02.871Z,943.59
2022-07-29T19:30:03.001Z,943.66
2022-07-29T19:35:02.789Z,943.65
2022-07-29T19:40:03.170Z,943.59
2022-07-29T19:45:03.042Z,943.61
2022-07-29T19:50:03.029Z,943.61
2022-07-29T19:55:07.278Z,943.61
2022-07-29T20:00:03.006Z,943.68
2022-07-29T20:05:03.069Z,943.74
2022-07-29T20:10:03.045Z,943.90
2022-07-29T20:15:02.842Z,943.96
2022-07-29T20:20:03.043Z,944.00
2022-07-29T20:25:02.862Z,943.92
2022-07-29T20:30:02.982Z,943.92
2022-07-29T20:35:02.982Z,943.90
2022-07-29T20:40:03.042Z,943.92
2022-07-29T20:45:06.840Z,943.94
2022-07-29T20:50:03.021Z,943.98
2022-07-29T20:55:02.803Z,944.08
2022-07-29T21:00:03.081Z,944.06
2022-07-29T21:05:02.872Z,944.08
2022-07-29T21:10:03.112Z,944.13
2022-07-29T21:15:03.060Z,944.13
2022-07-29T21:20:03.287Z,944.13
2022-07-29T21:25:02.955Z,944.21
2022-07-29T21:30:03.071Z,944.17
2022-07-29T21:35:02.872Z,944.19
2022-07-29T21:40:03.158Z,944.25
2022-07-29T21:45:02.946Z,944.31
2022-07-29T21:50:03.318Z,944.37
2022-07-29T21:55:02.879Z,944.39
2022-07-29T22:00:03.410Z,944.45
2022-07-29T22:05:02.954Z,944.43
2022-07-29T22:10:03.102Z,944.47
2022-07-29T22:15:02.982Z,944.47
2022-07-29T22:20:03.143Z,944.41
2022-07-29T22:25:02.912Z,944.33
2022-07-29T22:30:03.111Z,944.35
2022-07-29T22:35:02.990Z,944.39
2022-07-29T22:40:03.372Z,944.37
2022-07-29T22:45:03.044Z,944.31
2022-07-29T22:50:03.450Z,944.15
2022-07-29T22:55:02.916Z,944.15
2022-07-29T23:00:03.161Z,944.10
2022-07-29T23:05:02.869Z,944.15
2022-07-29T23:10:03.164Z,944.29
2022-07-29T23:15:04.451Z,944.33
2022-07-29T23:20:03.088Z,944.23
2022-07-29T23:25:02.986Z,944.25
2022-07-29T23:30:02.975Z,944.37
2022-07-29T23:35:02.972Z,944.41
2022-07-29T23:40:03.144Z,944.45
2022-07-29T23:45:02.867Z,944.61
2022-07-29T23:50:03.071Z,944.65
2022-07-29T23:55:36.285Z,944.74
